LRBS/BBU METAR and TAF weather

Enter ICAO airport designator
Station Type Date Time Source
LRBS METAR 2021/03/05 01:30 UTC NOAA

LRBS 050130Z 28004KT CAVOK 04/M01 Q1013 NOSIG


Station Type Date Time Source
LRBS Decoded METAR 2021/03/05 01:30 UTC NOAA

Bucuresti / Imh, Romania (LRBS) 44-30N 026-08E 91M
Mar 04, 2021 - 08:30 PM EST / 2021.03.05 0130 UTC
Wind: from the W (280 degrees) at 5 MPH (4 KT):0
Visibility: greater than 7 mile(s):0
Temperature: 39 F (4 C)
Dew Point: 30 F (-1 C)
Relative Humidity: 69%
Pressure (altimeter): 29.91 in. Hg (1013 hPa)
ob: LRBS 050130Z 28004KT CAVOK 04/M01 Q1013 NOSIG
cycle: 1

Station Type Date Time Source
LRBS TAF 2021/03/04 18:33 UTC NOAA

TAF TAF LRBS 041700Z 0418/0518 26010KT CAVOK

Example: see airport list